sensor_id;sensor_type;location;lat;lon;timestamp;pressure;altitude;pressure_sealevel;temperature;humidity
80627;BME280;69982;51.758;5.784;2023-06-04T00:01:37;102114.83;;;15.35;48.16
80627;BME280;69982;51.758;5.784;2023-06-04T00:04:05;102113.29;;;15.32;48.32
80627;BME280;69982;51.758;5.784;2023-06-04T00:06:33;102114.27;;;15.30;48.35
80627;BME280;69982;51.758;5.784;2023-06-04T00:09:00;102113.40;;;15.26;48.50
80627;BME280;69982;51.758;5.784;2023-06-04T00:11:28;102107.51;;;15.21;48.63
80627;BME280;69982;51.758;5.784;2023-06-04T00:13:56;102113.51;;;15.16;48.83
80627;BME280;69982;51.758;5.784;2023-06-04T00:16:27;102108.29;;;15.12;48.94
80627;BME280;69982;51.758;5.784;2023-06-04T00:18:54;102110.39;;;15.08;49.04
80627;BME280;69982;51.758;5.784;2023-06-04T00:21:22;102107.60;;;15.04;49.17
80627;BME280;69982;51.758;5.784;2023-06-04T00:23:50;102106.77;;;15.00;49.29
80627;BME280;69982;51.758;5.784;2023-06-04T00:26:18;102105.27;;;14.95;49.41
80627;BME280;69982;51.758;5.784;2023-06-04T00:28:46;102097.29;;;14.91;49.57
80627;BME280;69982;51.758;5.784;2023-06-04T00:31:14;102101.71;;;14.87;49.61
80627;BME280;69982;51.758;5.784;2023-06-04T00:33:42;102102.92;;;14.82;49.88
80627;BME280;69982;51.758;5.784;2023-06-04T00:36:10;102102.80;;;14.78;49.93
80627;BME280;69982;51.758;5.784;2023-06-04T00:38:38;102102.61;;;14.75;49.95
80627;BME280;69982;51.758;5.784;2023-06-04T00:41:06;102102.15;;;14.73;49.97
80627;BME280;69982;51.758;5.784;2023-06-04T00:43:34;102100.65;;;14.68;50.27
80627;BME280;69982;51.758;5.784;2023-06-04T00:46:05;102104.73;;;14.66;50.28
80627;BME280;69982;51.758;5.784;2023-06-04T00:48:34;102108.41;;;14.62;50.39
80627;BME280;69982;51.758;5.784;2023-06-04T00:51:05;102110.89;;;14.59;50.43
80627;BME280;69982;51.758;5.784;2023-06-04T00:53:34;102108.02;;;14.55;50.51
80627;BME280;69982;51.758;5.784;2023-06-04T00:56:02;102105.57;;;14.51;50.54
80627;BME280;69982;51.758;5.784;2023-06-04T00:58:39;102108.91;;;14.48;50.62
80627;BME280;69982;51.758;5.784;2023-06-04T01:01:12;102108.13;;;14.46;50.82
80627;BME280;69982;51.758;5.784;2023-06-04T01:03:46;102108.10;;;14.42;50.88
80627;BME280;69982;51.758;5.784;2023-06-04T01:06:38;102110.40;;;14.38;50.86
80627;BME280;69982;51.758;5.784;2023-06-04T01:09:07;102109.89;;;14.34;50.81
80627;BME280;69982;51.758;5.784;2023-06-04T01:11:37;102106.72;;;14.29;50.95
80627;BME280;69982;51.758;5.784;2023-06-04T01:14:09;102104.43;;;14.25;51.07
80627;BME280;69982;51.758;5.784;2023-06-04T01:17:01;102106.20;;;14.20;51.17
80627;BME280;69982;51.758;5.784;2023-06-04T01:25:32;102099.96;;;14.12;51.32
80627;BME280;69982;51.758;5.784;2023-06-04T01:28:01;102101.65;;;14.09;51.47
80627;BME280;69982;51.758;5.784;2023-06-04T01:30:33;102101.02;;;14.07;51.48
80627;BME280;69982;51.758;5.784;2023-06-04T01:33:03;102104.98;;;14.04;51.56
80627;BME280;69982;51.758;5.784;2023-06-04T01:35:31;102103.55;;;14.00;51.53
80627;BME280;69982;51.758;5.784;2023-06-04T01:37:59;102100.67;;;13.96;51.58
80627;BME280;69982;51.758;5.784;2023-06-04T01:40:27;102104.88;;;13.92;51.67
80627;BME280;69982;51.758;5.784;2023-06-04T01:42:55;102103.58;;;13.87;51.78
80627;BME280;69982;51.758;5.784;2023-06-04T01:45:23;102104.45;;;13.86;51.84
80627;BME280;69982;51.758;5.784;2023-06-04T01:47:51;102103.66;;;13.83;51.85
80627;BME280;69982;51.758;5.784;2023-06-04T01:50:19;102099.41;;;13.77;52.01
80627;BME280;69982;51.758;5.784;2023-06-04T01:52:47;102098.61;;;13.75;52.08
80627;BME280;69982;51.758;5.784;2023-06-04T01:55:16;102102.90;;;13.71;52.07
80627;BME280;69982;51.758;5.784;2023-06-04T01:57:46;102099.16;;;13.69;52.12
80627;BME280;69982;51.758;5.784;2023-06-04T02:00:14;102099.30;;;13.66;52.16
80627;BME280;69982;51.758;5.784;2023-06-04T02:02:44;102104.11;;;13.62;52.26
80627;BME280;69982;51.758;5.784;2023-06-04T02:05:24;102102.82;;;13.59;52.24
80627;BME280;69982;51.758;5.784;2023-06-04T02:07:52;102101.30;;;13.56;52.28
80627;BME280;69982;51.758;5.784;2023-06-04T02:10:19;102102.48;;;13.53;52.24
80627;BME280;69982;51.758;5.784;2023-06-04T02:13:01;102101.96;;;13.51;52.33
80627;BME280;69982;51.758;5.784;2023-06-04T02:15:34;102099.66;;;13.47;52.37
80627;BME280;69982;51.758;5.784;2023-06-04T02:18:18;102099.27;;;13.42;52.30
80627;BME280;69982;51.758;5.784;2023-06-04T02:20:49;102101.51;;;13.42;52.50
80627;BME280;69982;51.758;5.784;2023-06-04T02:23:19;102094.72;;;13.39;52.53
80627;BME280;69982;51.758;5.784;2023-06-04T02:25:49;102100.09;;;13.36;52.58
80627;BME280;69982;51.758;5.784;2023-06-04T02:28:18;102103.46;;;13.33;52.60
80627;BME280;69982;51.758;5.784;2023-06-04T02:30:47;102100.34;;;13.30;52.59
80627;BME280;69982;51.758;5.784;2023-06-04T02:33:16;102096.96;;;13.25;52.61
80627;BME280;69982;51.758;5.784;2023-06-04T02:35:47;102096.39;;;13.24;52.74
80627;BME280;69982;51.758;5.784;2023-06-04T02:38:15;102093.91;;;13.21;52.79
80627;BME280;69982;51.758;5.784;2023-06-04T02:40:43;102095.65;;;13.17;52.81
80627;BME280;69982;51.758;5.784;2023-06-04T02:43:11;102099.55;;;13.16;52.86
80627;BME280;69982;51.758;5.784;2023-06-04T02:45:39;102103.83;;;13.13;52.93
80627;BME280;69982;51.758;5.784;2023-06-04T02:48:07;102101.80;;;13.10;52.95
80627;BME280;69982;51.758;5.784;2023-06-04T02:50:35;102105.73;;;13.07;52.95
80627;BME280;69982;51.758;5.784;2023-06-04T02:53:03;102102.45;;;13.03;53.11
80627;BME280;69982;51.758;5.784;2023-06-04T02:55:32;102101.08;;;13.00;53.07
80627;BME280;69982;51.758;5.784;2023-06-04T02:58:00;102093.69;;;12.94;53.11
80627;BME280;69982;51.758;5.784;2023-06-04T03:00:28;102095.66;;;12.92;53.22
80627;BME280;69982;51.758;5.784;2023-06-04T03:02:56;102097.96;;;12.87;53.34
80627;BME280;69982;51.758;5.784;2023-06-04T03:05:29;102101.35;;;12.84;53.12
80627;BME280;69982;51.758;5.784;2023-06-04T03:08:01;102103.41;;;12.82;53.30
80627;BME280;69982;51.758;5.784;2023-06-04T03:10:31;102103.95;;;12.80;53.36
80627;BME280;69982;51.758;5.784;2023-06-04T03:12:59;102102.25;;;12.77;53.41
80627;BME280;69982;51.758;5.784;2023-06-04T03:15:27;102100.69;;;12.73;53.33
80627;BME280;69982;51.758;5.784;2023-06-04T03:17:55;102104.07;;;12.72;53.40
80627;BME280;69982;51.758;5.784;2023-06-04T03:20:25;102102.20;;;12.69;53.35
80627;BME280;69982;51.758;5.784;2023-06-04T03:22:53;102101.95;;;12.65;53.58
80627;BME280;69982;51.758;5.784;2023-06-04T03:25:21;102100.53;;;12.61;53.55
80627;BME280;69982;51.758;5.784;2023-06-04T03:27:49;102096.06;;;12.57;53.60
80627;BME280;69982;51.758;5.784;2023-06-04T03:30:17;102094.02;;;12.54;53.78
80627;BME280;69982;51.758;5.784;2023-06-04T03:32:45;102097.95;;;12.53;53.98
80627;BME280;69982;51.758;5.784;2023-06-04T03:35:16;102098.93;;;12.52;54.02
80627;BME280;69982;51.758;5.784;2023-06-04T03:37:47;102104.34;;;12.50;54.10
80627;BME280;69982;51.758;5.784;2023-06-04T03:40:15;102106.59;;;12.48;54.13
80627;BME280;69982;51.758;5.784;2023-06-04T03:42:43;102100.46;;;12.44;54.32
80627;BME280;69982;51.758;5.784;2023-06-04T03:45:11;102102.65;;;12.42;54.55
80627;BME280;69982;51.758;5.784;2023-06-04T03:47:39;102106.13;;;12.41;54.52
80627;BME280;69982;51.758;5.784;2023-06-04T03:50:08;102103.61;;;12.39;54.42
80627;BME280;69982;51.758;5.784;2023-06-04T03:52:37;102104.44;;;12.38;54.54
80627;BME280;69982;51.758;5.784;2023-06-04T03:55:05;102102.64;;;12.36;54.78
80627;BME280;69982;51.758;5.784;2023-06-04T03:57:33;102107.69;;;12.32;54.87
80627;BME280;69982;51.758;5.784;2023-06-04T04:00:01;102109.55;;;12.30;54.83
80627;BME280;69982;51.758;5.784;2023-06-04T04:02:35;102111.40;;;12.28;54.97
80627;BME280;69982;51.758;5.784;2023-06-04T04:05:03;102112.40;;;12.29;55.02
80627;BME280;69982;51.758;5.784;2023-06-04T04:07:31;102110.83;;;12.28;55.15
80627;BME280;69982;51.758;5.784;2023-06-04T04:09:59;102106.92;;;12.25;55.42
80627;BME280;69982;51.758;5.784;2023-06-04T04:12:27;102108.10;;;12.24;55.45
80627;BME280;69982;51.758;5.784;2023-06-04T04:14:54;102109.57;;;12.24;55.56
80627;BME280;69982;51.758;5.784;2023-06-04T04:17:22;102114.27;;;12.24;55.55
80627;BME280;69982;51.758;5.784;2023-06-04T04:19:50;102115.88;;;12.25;55.57
80627;BME280;69982;51.758;5.784;2023-06-04T04:22:19;102113.09;;;12.23;55.84
80627;BME280;69982;51.758;5.784;2023-06-04T04:24:48;102120.00;;;12.25;55.80
80627;BME280;69982;51.758;5.784;2023-06-04T04:27:16;102118.74;;;12.25;55.84
80627;BME280;69982;51.758;5.784;2023-06-04T04:29:44;102119.94;;;12.26;55.87
80627;BME280;69982;51.758;5.784;2023-06-04T04:32:12;102118.70;;;12.27;56.04
80627;BME280;69982;51.758;5.784;2023-06-04T04:34:51;102116.02;;;12.27;56.06
80627;BME280;69982;51.758;5.784;2023-06-04T04:37:22;102120.05;;;12.30;56.12
80627;BME280;69982;51.758;5.784;2023-06-04T04:39:51;102119.16;;;12.30;56.16
80627;BME280;69982;51.758;5.784;2023-06-04T04:42:19;102119.88;;;12.32;56.21
80627;BME280;69982;51.758;5.784;2023-06-04T04:44:47;102115.05;;;12.33;56.40
80627;BME280;69982;51.758;5.784;2023-06-04T04:47:16;102117.29;;;12.37;56.33
80627;BME280;69982;51.758;5.784;2023-06-04T04:49:46;102119.61;;;12.39;56.39
80627;BME280;69982;51.758;5.784;2023-06-04T04:52:15;102121.81;;;12.41;56.35
80627;BME280;69982;51.758;5.784;2023-06-04T04:54:43;102125.02;;;12.43;56.41
80627;BME280;69982;51.758;5.784;2023-06-04T04:57:12;102123.17;;;12.45;56.28
80627;BME280;69982;51.758;5.784;2023-06-04T04:59:41;102120.59;;;12.48;56.46
80627;BME280;69982;51.758;5.784;2023-06-04T05:02:08;102118.60;;;12.49;56.65
80627;BME280;69982;51.758;5.784;2023-06-04T05:04:38;102118.52;;;12.52;56.51
80627;BME280;69982;51.758;5.784;2023-06-04T05:07:05;102115.73;;;12.55;56.66
80627;BME280;69982;51.758;5.784;2023-06-04T05:09:33;102123.94;;;12.60;56.56
80627;BME280;69982;51.758;5.784;2023-06-04T05:12:01;102122.88;;;12.61;56.64
80627;BME280;69982;51.758;5.784;2023-06-04T05:14:29;102121.52;;;12.64;56.55
80627;BME280;69982;51.758;5.784;2023-06-04T05:16:57;102121.77;;;12.67;56.69
80627;BME280;69982;51.758;5.784;2023-06-04T05:19:25;102127.38;;;12.71;56.54
80627;BME280;69982;51.758;5.784;2023-06-04T05:21:53;102123.66;;;12.76;56.68
80627;BME280;69982;51.758;5.784;2023-06-04T05:24:21;102127.86;;;12.81;56.81
80627;BME280;69982;51.758;5.784;2023-06-04T05:26:49;102127.14;;;12.87;56.61
80627;BME280;69982;51.758;5.784;2023-06-04T05:29:17;102116.00;;;12.89;56.64
80627;BME280;69982;51.758;5.784;2023-06-04T05:31:45;102122.94;;;12.98;56.80
80627;BME280;69982;51.758;5.784;2023-06-04T05:34:13;102112.98;;;13.00;56.83
80627;BME280;69982;51.758;5.784;2023-06-04T05:36:45;102119.52;;;13.10;56.67
80627;BME280;69982;51.758;5.784;2023-06-04T05:39:14;102126.27;;;13.16;56.46
80627;BME280;69982;51.758;5.784;2023-06-04T05:41:42;102128.99;;;13.21;56.36
80627;BME280;69982;51.758;5.784;2023-06-04T05:44:09;102125.59;;;13.26;56.36
80627;BME280;69982;51.758;5.784;2023-06-04T05:46:37;102125.77;;;13.30;56.28
80627;BME280;69982;51.758;5.784;2023-06-04T05:49:05;102130.09;;;13.36;56.25
80627;BME280;69982;51.758;5.784;2023-06-04T05:51:33;102125.66;;;13.42;56.19
80627;BME280;69982;51.758;5.784;2023-06-04T05:54:01;102127.71;;;13.49;56.23
80627;BME280;69982;51.758;5.784;2023-06-04T05:56:29;102129.91;;;13.56;56.15
80627;BME280;69982;51.758;5.784;2023-06-04T05:58:57;102134.05;;;13.64;56.21
80627;BME280;69982;51.758;5.784;2023-06-04T06:01:26;102135.42;;;13.72;56.14
80627;BME280;69982;51.758;5.784;2023-06-04T06:03:55;102133.79;;;13.79;56.05
80627;BME280;69982;51.758;5.784;2023-06-04T06:06:24;102136.37;;;13.91;55.97
80627;BME280;69982;51.758;5.784;2023-06-04T06:08:52;102136.73;;;14.00;55.88
80627;BME280;69982;51.758;5.784;2023-06-04T06:11:20;102133.53;;;14.09;55.57
80627;BME280;69982;51.758;5.784;2023-06-04T06:13:49;102127.25;;;14.17;55.18
80627;BME280;69982;51.758;5.784;2023-06-04T06:16:17;102130.98;;;14.31;55.16
80627;BME280;69982;51.758;5.784;2023-06-04T06:18:46;102133.70;;;14.43;55.19
80627;BME280;69982;51.758;5.784;2023-06-04T06:21:14;102138.54;;;14.56;54.94
80627;BME280;69982;51.758;5.784;2023-06-04T06:23:42;102136.20;;;14.68;54.68
80627;BME280;69982;51.758;5.784;2023-06-04T06:26:10;102137.05;;;14.79;54.47
80627;BME280;69982;51.758;5.784;2023-06-04T06:28:39;102133.84;;;14.92;54.39
80627;BME280;69982;51.758;5.784;2023-06-04T06:31:07;102138.34;;;15.04;54.11
80627;BME280;69982;51.758;5.784;2023-06-04T06:33:35;102142.17;;;15.18;53.92
80627;BME280;69982;51.758;5.784;2023-06-04T06:36:11;102146.16;;;15.32;53.56
80627;BME280;69982;51.758;5.784;2023-06-04T06:38:40;102148.88;;;15.45;53.20
80627;BME280;69982;51.758;5.784;2023-06-04T06:41:08;102142.14;;;15.55;52.72
80627;BME280;69982;51.758;5.784;2023-06-04T06:43:36;102142.16;;;15.67;52.36
80627;BME280;69982;51.758;5.784;2023-06-04T06:46:04;102149.25;;;15.82;52.14
80627;BME280;69982;51.758;5.784;2023-06-04T06:48:32;102146.17;;;15.93;51.87
80627;BME280;69982;51.758;5.784;2023-06-04T06:51:00;102151.33;;;16.07;51.55
80627;BME280;69982;51.758;5.784;2023-06-04T06:53:27;102155.83;;;16.19;51.15
80627;BME280;69982;51.758;5.784;2023-06-04T06:55:55;102154.70;;;16.31;51.13
80627;BME280;69982;51.758;5.784;2023-06-04T06:58:26;102157.09;;;16.46;50.43
80627;BME280;69982;51.758;5.784;2023-06-04T07:00:53;102155.47;;;16.58;50.13
80627;BME280;69982;51.758;5.784;2023-06-04T07:03:24;102153.55;;;16.72;50.05
80627;BME280;69982;51.758;5.784;2023-06-04T07:05:53;102154.41;;;16.87;50.08
80627;BME280;69982;51.758;5.784;2023-06-04T07:08:21;102155.55;;;16.99;49.53
80627;BME280;69982;51.758;5.784;2023-06-04T07:10:49;102158.72;;;17.14;48.69
80627;BME280;69982;51.758;5.784;2023-06-04T07:13:17;102162.23;;;17.28;48.30
80627;BME280;69982;51.758;5.784;2023-06-04T07:15:45;102164.83;;;17.40;48.10
80627;BME280;69982;51.758;5.784;2023-06-04T07:18:13;102168.84;;;17.53;47.99
80627;BME280;69982;51.758;5.784;2023-06-04T07:20:41;102167.16;;;17.65;46.47
80627;BME280;69982;51.758;5.784;2023-06-04T07:23:09;102166.80;;;17.75;45.98
80627;BME280;69982;51.758;5.784;2023-06-04T07:25:37;102163.53;;;17.87;46.59
80627;BME280;69982;51.758;5.784;2023-06-04T07:28:05;102173.19;;;18.03;46.78
80627;BME280;69982;51.758;5.784;2023-06-04T07:30:33;102166.48;;;18.13;45.57
80627;BME280;69982;51.758;5.784;2023-06-04T07:33:01;102175.95;;;18.29;45.14
80627;BME280;69982;51.758;5.784;2023-06-04T07:35:29;102176.13;;;18.41;44.13
80627;BME280;69982;51.758;5.784;2023-06-04T07:37:57;102173.64;;;18.52;44.41
80627;BME280;69982;51.758;5.784;2023-06-04T07:40:25;102169.77;;;18.65;44.79
80627;BME280;69982;51.758;5.784;2023-06-04T07:42:53;102164.65;;;18.75;44.26
80627;BME280;69982;51.758;5.784;2023-06-04T07:45:21;102167.19;;;18.89;44.40
80627;BME280;69982;51.758;5.784;2023-06-04T07:47:49;102170.39;;;19.04;43.18
80627;BME280;69982;51.758;5.784;2023-06-04T07:50:17;102160.80;;;19.15;43.10
80627;BME280;69982;51.758;5.784;2023-06-04T07:52:45;102165.90;;;19.32;43.49
80627;BME280;69982;51.758;5.784;2023-06-04T07:55:13;102171.34;;;19.49;43.46
80627;BME280;69982;51.758;5.784;2023-06-04T07:57:42;102170.92;;;19.63;42.67
80627;BME280;69982;51.758;5.784;2023-06-04T08:00:10;102172.63;;;19.79;42.71
80627;BME280;69982;51.758;5.784;2023-06-04T08:02:39;102175.64;;;19.94;42.71
80627;BME280;69982;51.758;5.784;2023-06-04T08:05:07;102176.19;;;20.09;41.91
80627;BME280;69982;51.758;5.784;2023-06-04T08:07:35;102175.92;;;20.21;41.65
80627;BME280;69982;51.758;5.784;2023-06-04T08:10:03;102177.75;;;20.33;40.99
80627;BME280;69982;51.758;5.784;2023-06-04T08:12:32;102176.77;;;20.44;40.83
80627;BME280;69982;51.758;5.784;2023-06-04T08:15:00;102173.11;;;20.54;40.97
80627;BME280;69982;51.758;5.784;2023-06-04T08:17:28;102170.79;;;20.64;40.85
80627;BME280;69982;51.758;5.784;2023-06-04T08:19:56;102174.08;;;20.79;40.91
80627;BME280;69982;51.758;5.784;2023-06-04T08:22:25;102172.15;;;20.92;40.75
80627;BME280;69982;51.758;5.784;2023-06-04T08:24:55;102173.03;;;21.04;40.26
80627;BME280;69982;51.758;5.784;2023-06-04T08:27:24;102173.67;;;21.16;39.95
80627;BME280;69982;51.758;5.784;2023-06-04T08:29:52;102176.77;;;21.26;39.16
80627;BME280;69982;51.758;5.784;2023-06-04T08:32:21;102175.29;;;21.34;38.92
80627;BME280;69982;51.758;5.784;2023-06-04T08:34:50;102177.77;;;21.45;38.41
80627;BME280;69982;51.758;5.784;2023-06-04T08:37:18;102175.03;;;21.51;38.22
80627;BME280;69982;51.758;5.784;2023-06-04T08:39:49;102182.74;;;21.65;38.47
80627;BME280;69982;51.758;5.784;2023-06-04T08:42:24;102177.97;;;21.75;38.35
80627;BME280;69982;51.758;5.784;2023-06-04T08:44:59;102179.23;;;21.86;38.48
80627;BME280;69982;51.758;5.784;2023-06-04T08:47:29;102177.79;;;21.97;37.95
80627;BME280;69982;51.758;5.784;2023-06-04T08:50:01;102181.67;;;22.11;37.71
80627;BME280;69982;51.758;5.784;2023-06-04T08:52:29;102180.67;;;22.22;36.88
80627;BME280;69982;51.758;5.784;2023-06-04T08:55:00;102181.33;;;22.31;36.66
80627;BME280;69982;51.758;5.784;2023-06-04T08:57:33;102179.25;;;22.38;36.49
80627;BME280;69982;51.758;5.784;2023-06-04T09:00:02;102186.02;;;22.51;36.44
80627;BME280;69982;51.758;5.784;2023-06-04T09:02:38;102186.29;;;22.61;36.25
80627;BME280;69982;51.758;5.784;2023-06-04T09:05:07;102186.02;;;22.73;36.15
80627;BME280;69982;51.758;5.784;2023-06-04T09:07:39;102181.40;;;22.85;35.32
80627;BME280;69982;51.758;5.784;2023-06-04T09:10:11;102188.46;;;22.98;34.80
80627;BME280;69982;51.758;5.784;2023-06-04T09:12:42;102187.34;;;23.08;33.67
80627;BME280;69982;51.758;5.784;2023-06-04T09:15:12;102188.55;;;23.18;33.98
80627;BME280;69982;51.758;5.784;2023-06-04T09:17:40;102193.64;;;23.30;33.61
80627;BME280;69982;51.758;5.784;2023-06-04T09:20:18;102190.11;;;23.39;33.58
80627;BME280;69982;51.758;5.784;2023-06-04T09:22:47;102183.52;;;23.45;32.80
80627;BME280;69982;51.758;5.784;2023-06-04T09:25:23;102184.02;;;23.52;32.38
80627;BME280;69982;51.758;5.784;2023-06-04T09:27:58;102182.25;;;23.62;31.77
80627;BME280;69982;51.758;5.784;2023-06-04T09:30:33;102178.23;;;23.73;31.12
80627;BME280;69982;51.758;5.784;2023-06-04T09:33:10;102179.90;;;23.81;29.96
80627;BME280;69982;51.758;5.784;2023-06-04T09:35:39;102177.97;;;23.84;29.67
80627;BME280;69982;51.758;5.784;2023-06-04T09:38:08;102180.34;;;23.87;30.93
80627;BME280;69982;51.758;5.784;2023-06-04T09:40:37;102184.27;;;23.96;30.57
80627;BME280;69982;51.758;5.784;2023-06-04T09:43:05;102180.80;;;24.03;30.50
80627;BME280;69982;51.758;5.784;2023-06-04T09:45:34;102181.95;;;24.10;30.53
80627;BME280;69982;51.758;5.784;2023-06-04T09:48:04;102171.39;;;24.13;30.52
80627;BME280;69982;51.758;5.784;2023-06-04T09:50:34;102180.29;;;24.25;30.72
80627;BME280;69982;51.758;5.784;2023-06-04T09:53:13;102178.23;;;24.34;30.68
80627;BME280;69982;51.758;5.784;2023-06-04T09:55:42;102178.02;;;24.45;29.23
80627;BME280;69982;51.758;5.784;2023-06-04T09:58:10;102183.69;;;24.58;29.43
80627;BME280;69982;51.758;5.784;2023-06-04T10:00:40;102184.21;;;24.67;29.12
80627;BME280;69982;51.758;5.784;2023-06-04T10:03:11;102182.08;;;24.76;29.47
80627;BME280;69982;51.758;5.784;2023-06-04T10:05:42;102178.82;;;24.86;29.82
80627;BME280;69982;51.758;5.784;2023-06-04T10:08:13;102179.10;;;24.98;29.60
80627;BME280;69982;51.758;5.784;2023-06-04T10:10:43;102179.69;;;25.09;29.13
80627;BME280;69982;51.758;5.784;2023-06-04T10:13:18;102177.14;;;25.18;28.87
80627;BME280;69982;51.758;5.784;2023-06-04T10:15:46;102175.58;;;25.29;28.43
80627;BME280;69982;51.758;5.784;2023-06-04T10:18:15;102173.91;;;25.36;27.70
80627;BME280;69982;51.758;5.784;2023-06-04T10:20:43;102173.69;;;25.40;27.74
80627;BME280;69982;51.758;5.784;2023-06-04T10:23:12;102175.05;;;25.48;27.50
80627;BME280;69982;51.758;5.784;2023-06-04T10:25:41;102175.65;;;25.57;27.07
80627;BME280;69982;51.758;5.784;2023-06-04T10:28:11;102177.46;;;25.65;26.81
80627;BME280;69982;51.758;5.784;2023-06-04T10:30:40;102176.70;;;25.69;26.13
80627;BME280;69982;51.758;5.784;2023-06-04T10:33:08;102175.25;;;25.71;26.88
80627;BME280;69982;51.758;5.784;2023-06-04T10:35:37;102170.34;;;25.78;27.33
80627;BME280;69982;51.758;5.784;2023-06-04T10:38:13;102170.25;;;25.87;27.55
80627;BME280;69982;51.758;5.784;2023-06-04T10:40:42;102166.03;;;25.94;27.42
80627;BME280;69982;51.758;5.784;2023-06-04T10:43:12;102169.11;;;26.09;27.61
80627;BME280;69982;51.758;5.784;2023-06-04T10:45:41;102172.80;;;26.20;27.14
80627;BME280;69982;51.758;5.784;2023-06-04T10:48:11;102174.55;;;26.29;27.47
80627;BME280;69982;51.758;5.784;2023-06-04T10:50:51;102175.66;;;26.39;27.35
80627;BME280;69982;51.758;5.784;2023-06-04T10:53:20;102175.08;;;26.46;26.97
80627;BME280;69982;51.758;5.784;2023-06-04T10:55:49;102174.65;;;26.54;26.52
80627;BME280;69982;51.758;5.784;2023-06-04T10:58:18;102166.63;;;26.52;25.55
80627;BME280;69982;51.758;5.784;2023-06-04T11:00:49;102168.23;;;26.53;26.74
80627;BME280;69982;51.758;5.784;2023-06-04T11:03:17;102172.52;;;26.64;27.14
80627;BME280;69982;51.758;5.784;2023-06-04T11:05:46;102167.82;;;26.72;26.93
80627;BME280;69982;51.758;5.784;2023-06-04T11:08:26;102175.16;;;26.83;26.63
80627;BME280;69982;51.758;5.784;2023-06-04T11:10:56;102164.02;;;26.90;26.82
80627;BME280;69982;51.758;5.784;2023-06-04T11:13:25;102168.98;;;27.04;26.62
80627;BME280;69982;51.758;5.784;2023-06-04T11:15:55;102162.33;;;27.16;26.71
80627;BME280;69982;51.758;5.784;2023-06-04T11:18:24;102166.73;;;27.27;26.36
80627;BME280;69982;51.758;5.784;2023-06-04T11:21:00;102165.28;;;27.35;26.16
80627;BME280;69982;51.758;5.784;2023-06-04T11:23:28;102159.00;;;27.44;25.42
80627;BME280;69982;51.758;5.784;2023-06-04T11:25:57;102154.68;;;27.48;25.94
80627;BME280;69982;51.758;5.784;2023-06-04T11:28:26;102154.78;;;27.62;25.89
80627;BME280;69982;51.758;5.784;2023-06-04T11:30:59;102151.88;;;27.73;25.55
80627;BME280;69982;51.758;5.784;2023-06-04T11:33:30;102145.65;;;27.83;25.18
80627;BME280;69982;51.758;5.784;2023-06-04T11:35:59;102142.36;;;27.91;25.00
80627;BME280;69982;51.758;5.784;2023-06-04T11:38:27;102143.76;;;27.98;24.86
80627;BME280;69982;51.758;5.784;2023-06-04T11:41:02;102152.19;;;28.10;24.79
80627;BME280;69982;51.758;5.784;2023-06-04T11:43:34;102144.57;;;28.22;24.68
80627;BME280;69982;51.758;5.784;2023-06-04T11:46:06;102142.31;;;28.33;24.38
80627;BME280;69982;51.758;5.784;2023-06-04T11:48:34;102149.53;;;28.41;23.44
80627;BME280;69982;51.758;5.784;2023-06-04T11:51:08;102138.60;;;28.42;23.17
80627;BME280;69982;51.758;5.784;2023-06-04T11:53:37;102137.59;;;28.42;24.23
80627;BME280;69982;51.758;5.784;2023-06-04T11:56:05;102140.88;;;28.55;23.54
80627;BME280;69982;51.758;5.784;2023-06-04T11:58:33;102137.42;;;28.62;23.48
80627;BME280;69982;51.758;5.784;2023-06-04T12:01:01;102134.89;;;28.68;23.54
80627;BME280;69982;51.758;5.784;2023-06-04T12:03:37;102129.94;;;28.73;23.52
80627;BME280;69982;51.758;5.784;2023-06-04T12:06:15;102128.68;;;28.78;23.16
80627;BME280;69982;51.758;5.784;2023-06-04T12:08:48;102128.83;;;28.86;23.39
80627;BME280;69982;51.758;5.784;2023-06-04T12:11:31;102124.50;;;28.95;23.48
80627;BME280;69982;51.758;5.784;2023-06-04T12:14:04;102125.59;;;29.06;23.57
80627;BME280;69982;51.758;5.784;2023-06-04T12:16:36;102124.61;;;29.16;23.36
80627;BME280;69982;51.758;5.784;2023-06-04T12:19:11;102124.52;;;29.26;23.57
80627;BME280;69982;51.758;5.784;2023-06-04T12:21:40;102128.27;;;29.35;23.18
80627;BME280;69982;51.758;5.784;2023-06-04T12:24:12;102121.20;;;29.40;22.75
80627;BME280;69982;51.758;5.784;2023-06-04T12:26:43;102122.42;;;29.43;22.20
80627;BME280;69982;51.758;5.784;2023-06-04T12:29:15;102116.48;;;29.47;22.41
80627;BME280;69982;51.758;5.784;2023-06-04T12:31:44;102113.76;;;29.49;22.68
80627;BME280;69982;51.758;5.784;2023-06-04T12:34:13;102118.11;;;29.52;22.16
80627;BME280;69982;51.758;5.784;2023-06-04T12:36:41;102114.09;;;29.53;22.33
80627;BME280;69982;51.758;5.784;2023-06-04T12:39:10;102107.49;;;29.59;22.32
80627;BME280;69982;51.758;5.784;2023-06-04T12:41:45;102108.48;;;29.63;22.07
80627;BME280;69982;51.758;5.784;2023-06-04T12:44:13;102112.55;;;29.72;22.60
80627;BME280;69982;51.758;5.784;2023-06-04T12:46:42;102112.13;;;29.78;22.35
80627;BME280;69982;51.758;5.784;2023-06-04T12:49:10;102114.74;;;29.87;22.64
80627;BME280;69982;51.758;5.784;2023-06-04T12:51:41;102108.48;;;29.94;22.18
80627;BME280;69982;51.758;5.784;2023-06-04T12:54:09;102108.45;;;30.05;21.88
80627;BME280;69982;51.758;5.784;2023-06-04T12:56:39;102107.23;;;30.13;22.36
80627;BME280;69982;51.758;5.784;2023-06-04T12:59:08;102107.91;;;30.25;22.40
80627;BME280;69982;51.758;5.784;2023-06-04T13:01:36;102100.49;;;30.37;21.86
80627;BME280;69982;51.758;5.784;2023-06-04T13:04:05;102108.39;;;30.43;22.09
80627;BME280;69982;51.758;5.784;2023-06-04T13:06:34;102105.27;;;30.52;22.16
80627;BME280;69982;51.758;5.784;2023-06-04T13:09:04;102105.30;;;30.59;21.64